createdAt,value
2018-04-24T00:02:01.462Z,1.90
2018-04-24T00:04:28.273Z,1.95
2018-04-24T00:06:55.135Z,2.20
2018-04-24T00:09:21.981Z,1.70
2018-04-24T00:11:48.830Z,2.33
2018-04-24T00:14:15.699Z,2.10
2018-04-24T00:16:42.541Z,2.20
2018-04-24T00:19:09.710Z,2.10
2018-04-24T00:21:36.579Z,2.30
2018-04-24T00:24:03.393Z,2.20
2018-04-24T00:26:30.226Z,2.40
2018-04-24T00:28:57.115Z,2.30
2018-04-24T00:31:23.945Z,2.40
2018-04-24T00:33:50.796Z,2.40
2018-04-24T00:36:17.914Z,2.40
2018-04-24T00:38:45.058Z,2.40
2018-04-24T00:41:11.911Z,2.20
2018-04-24T00:43:38.767Z,2.42
2018-04-24T00:46:05.612Z,2.60
2018-04-24T00:48:32.467Z,2.90
2018-04-24T00:50:59.285Z,2.90
2018-04-24T00:53:32.001Z,2.40
2018-04-24T00:55:59.214Z,3.10
2018-04-24T00:58:26.094Z,3.10
2018-04-24T01:00:52.905Z,2.87
2018-04-24T01:03:20.053Z,2.70
2018-04-24T01:05:47.197Z,3.03
2018-04-24T01:08:14.152Z,3.37
2018-04-24T01:10:40.985Z,3.50
2018-04-24T01:13:07.805Z,3.50
2018-04-24T01:15:34.985Z,3.33
2018-04-24T01:18:01.789Z,3.80
2018-04-24T01:20:28.977Z,3.80
2018-04-24T01:22:55.818Z,4.03
2018-04-24T01:25:22.972Z,4.10
2018-04-24T01:27:49.810Z,4.25
2018-04-24T01:30:16.672Z,4.55
2018-04-24T01:32:43.805Z,4.53
2018-04-24T01:35:10.649Z,4.57
2018-04-24T01:37:37.519Z,4.65
2018-04-24T01:40:04.375Z,5.43
2018-04-24T01:42:31.486Z,5.37
2018-04-24T01:44:58.351Z,4.75
2018-04-24T01:47:25.478Z,5.28
2018-04-24T01:49:52.281Z,5.32
2018-04-24T01:52:19.135Z,5.50
2018-04-24T01:54:46.019Z,5.47
2018-04-24T01:57:12.895Z,5.32
2018-04-24T01:59:39.734Z,5.55
2018-04-24T02:02:06.587Z,6.00
2018-04-24T02:04:33.475Z,6.07
2018-04-24T02:07:00.635Z,5.60
2018-04-24T02:09:27.511Z,5.70
2018-04-24T02:11:54.334Z,6.03
2018-04-24T02:14:21.195Z,5.97
2018-04-24T02:16:48.413Z,6.40
2018-04-24T02:19:15.254Z,6.60
2018-04-24T02:21:42.127Z,6.30
2018-04-24T02:24:09.177Z,6.45
2018-04-24T02:26:36.038Z,5.90
2018-04-24T02:29:02.910Z,6.78
2018-04-24T02:31:29.718Z,6.80
2018-04-24T02:33:56.541Z,6.78
2018-04-24T02:36:23.407Z,6.30
2018-04-24T02:38:50.262Z,6.50
2018-04-24T02:41:17.097Z,6.37
2018-04-24T02:43:43.937Z,6.57
2018-04-24T02:46:10.784Z,6.40
2018-04-24T02:48:37.667Z,6.37
2018-04-24T02:51:04.503Z,6.87
2018-04-24T02:53:31.347Z,6.60
2018-04-24T02:55:58.184Z,6.68
2018-04-24T02:58:24.997Z,6.57
2018-04-24T03:00:51.842Z,6.60
2018-04-24T03:03:18.707Z,7.30
2018-04-24T03:05:45.899Z,6.60
2018-04-24T03:08:12.779Z,7.45
2018-04-24T03:10:39.597Z,7.20
2018-04-24T03:13:06.429Z,7.87
2018-04-24T03:15:33.341Z,7.60
2018-04-24T03:18:00.522Z,7.93
2018-04-24T03:20:27.402Z,7.72
2018-04-24T03:22:54.233Z,8.10
2018-04-24T03:25:21.053Z,7.15
2018-04-24T03:27:47.889Z,7.70
2018-04-24T03:30:14.735Z,7.43
2018-04-24T03:32:41.593Z,7.77
2018-04-24T03:35:08.435Z,7.90
2018-04-24T03:37:35.280Z,7.95
2018-04-24T03:40:02.419Z,8.20
2018-04-24T03:42:29.267Z,7.90
2018-04-24T03:44:56.121Z,8.00
2018-04-24T03:47:23.002Z,8.00
2018-04-24T03:49:49.851Z,8.13
2018-04-24T03:52:16.686Z,7.50
2018-04-24T03:54:43.490Z,8.50
2018-04-24T03:57:10.696Z,8.95
2018-04-24T03:59:37.471Z,8.30
2018-04-24T04:02:04.315Z,7.85
2018-04-24T04:04:31.146Z,8.30
2018-04-24T04:06:58.019Z,8.10
2018-04-24T04:09:24.871Z,7.55
2018-04-24T04:11:51.698Z,7.85
2018-04-24T04:14:18.838Z,7.90
2018-04-24T04:16:45.692Z,8.43
2018-04-24T04:19:18.435Z,8.10
2018-04-24T04:21:51.197Z,8.30
2018-04-24T04:24:26.173Z,8.20
2018-04-24T04:26:53.047Z,7.78
2018-04-24T04:29:19.891Z,7.28
2018-04-24T04:31:47.009Z,7.60
2018-04-24T04:34:13.847Z,7.68
2018-04-24T04:36:40.690Z,8.10
2018-04-24T04:39:07.551Z,8.13
2018-04-24T04:41:34.430Z,7.60
2018-04-24T04:44:01.233Z,7.80
2018-04-24T04:46:28.084Z,7.28
2018-04-24T04:48:55.227Z,7.53
2018-04-24T04:51:22.373Z,7.50
2018-04-24T04:53:49.207Z,7.20
2018-04-24T04:56:16.371Z,7.35
2018-04-24T04:58:43.197Z,7.45
2018-04-24T05:01:10.051Z,7.47
2018-04-24T05:03:37.206Z,6.70
2018-04-24T05:06:04.075Z,7.00
2018-04-24T05:08:30.902Z,7.50
2018-04-24T05:10:58.047Z,7.22
2018-04-24T05:13:24.902Z,6.80
2018-04-24T05:15:51.755Z,7.10
2018-04-24T05:18:18.580Z,6.80
2018-04-24T05:20:45.393Z,6.60
2018-04-24T05:23:12.205Z,7.10
2018-04-24T05:25:39.057Z,6.80
2018-04-24T05:28:05.878Z,6.78
2018-04-24T05:30:32.727Z,6.50
2018-04-24T05:32:59.587Z,7.07
2018-04-24T05:35:26.677Z,6.40
2018-04-24T05:37:53.517Z,6.28
2018-04-24T05:40:20.367Z,5.82
2018-04-24T05:42:47.227Z,6.80
2018-04-24T05:45:14.160Z,6.87
2018-04-24T05:47:41.008Z,6.57
2018-04-24T05:50:07.897Z,7.35
2018-04-24T05:52:34.743Z,7.90
2018-04-24T05:55:01.785Z,7.55
2018-04-24T05:57:28.610Z,7.37
2018-04-24T05:59:55.433Z,7.20
2018-04-24T06:02:22.331Z,7.50
2018-04-24T06:04:49.146Z,7.62
2018-04-24T06:07:16.259Z,8.00
2018-04-24T06:09:43.089Z,8.20
2018-04-24T06:12:09.941Z,8.23
2018-04-24T06:14:37.092Z,7.90
2018-04-24T06:17:03.936Z,8.20
2018-04-24T06:19:31.091Z,8.63
2018-04-24T06:21:58.239Z,8.80
2018-04-24T06:24:25.050Z,8.90
2018-04-24T06:26:51.886Z,9.00
2018-04-24T06:29:19.075Z,8.35
2018-04-24T06:31:46.228Z,8.63
2018-04-24T06:34:13.053Z,8.80
2018-04-24T06:36:39.870Z,9.18
2018-04-24T06:39:06.957Z,9.00
2018-04-24T06:41:33.787Z,8.68
2018-04-24T06:44:00.959Z,8.57
2018-04-24T06:46:27.797Z,8.23
2018-04-24T06:48:54.627Z,8.02
2018-04-24T06:51:21.486Z,8.50
2018-04-24T06:53:48.736Z,8.20
2018-04-24T06:56:15.570Z,8.30
2018-04-24T06:58:42.438Z,8.73
2018-04-24T07:01:09.306Z,8.20
2018-04-24T07:03:36.441Z,8.30
2018-04-24T07:06:03.258Z,8.40
2018-04-24T07:08:30.131Z,7.80
2018-04-24T07:10:57.398Z,8.90
2018-04-24T07:13:24.237Z,8.65
2018-04-24T07:15:51.351Z,8.55
2018-04-24T07:18:18.169Z,9.15
2018-04-24T07:20:45.037Z,8.70
2018-04-24T07:23:12.190Z,8.73
2018-04-24T07:25:39.036Z,8.63
2018-04-24T07:28:05.882Z,8.60
2018-04-24T07:30:32.714Z,9.32
2018-04-24T07:32:59.623Z,9.05
2018-04-24T07:35:26.812Z,8.90
2018-04-24T07:37:54.271Z,9.07
2018-04-24T07:40:21.110Z,9.00
2018-04-24T07:42:47.926Z,9.30
2018-04-24T07:45:14.776Z,9.30
2018-04-24T07:47:41.924Z,9.50
2018-04-24T07:50:08.746Z,8.30
2018-04-24T07:52:35.573Z,9.45
2018-04-24T07:55:02.440Z,9.80
2018-04-24T07:57:29.261Z,9.30
2018-04-24T07:59:56.120Z,9.20
2018-04-24T08:02:22.967Z,9.10
2018-04-24T08:04:49.813Z,9.60
2018-04-24T08:07:16.667Z,9.52
2018-04-24T08:09:43.516Z,8.90
2018-04-24T08:12:10.688Z,9.87
2018-04-24T08:14:37.563Z,9.63
2018-04-24T08:17:04.683Z,9.00
2018-04-24T08:19:31.526Z,9.25
2018-04-24T08:21:58.372Z,9.50
2018-04-24T08:24:25.226Z,9.45
2018-04-24T08:26:52.467Z,9.43
2018-04-24T08:29:19.393Z,9.95
2018-04-24T08:31:46.251Z,10.00
2018-04-24T08:34:13.083Z,10.10
2018-04-24T08:36:39.918Z,9.65
2018-04-24T08:39:06.990Z,10.37
2018-04-24T08:41:34.133Z,10.00
2018-04-24T08:44:00.973Z,11.40
2018-04-24T08:46:27.850Z,9.87
2018-04-24T08:48:54.974Z,10.20
2018-04-24T08:51:21.827Z,10.27
2018-04-24T08:53:48.984Z,10.57
2018-04-24T08:56:16.138Z,10.00
2018-04-24T08:58:42.969Z,9.68
2018-04-24T09:01:09.831Z,9.70
2018-04-24T09:03:36.713Z,10.50
2018-04-24T09:06:03.563Z,10.43
2018-04-24T09:08:30.451Z,10.40
2018-04-24T09:10:57.237Z,10.07
2018-04-24T09:13:24.442Z,11.15
2018-04-24T09:15:51.577Z,10.88
2018-04-24T09:18:18.413Z,11.10
2018-04-24T09:20:45.745Z,11.40
2018-04-24T09:23:12.682Z,11.38
2018-04-24T09:25:39.663Z,11.17
2018-04-24T09:28:06.652Z,11.37
2018-04-24T09:30:33.498Z,11.23
2018-04-24T09:33:00.361Z,11.35
2018-04-24T09:35:27.237Z,12.10
2018-04-24T09:37:54.701Z,11.10
2018-04-24T09:40:21.857Z,11.55
2018-04-24T09:42:49.001Z,11.57
2018-04-24T09:45:15.851Z,10.98
2018-04-24T09:47:42.966Z,11.45
2018-04-24T09:50:09.815Z,12.15
2018-04-24T09:52:36.655Z,11.20
2018-04-24T09:55:03.509Z,11.35
2018-04-24T09:57:30.360Z,11.80
2018-04-24T09:59:57.521Z,11.30
2018-04-24T10:02:24.677Z,11.90
2018-04-24T10:04:51.522Z,11.68
2018-04-24T10:07:18.379Z,11.47
2018-04-24T10:09:45.505Z,11.90
2018-04-24T10:12:12.353Z,11.20
2018-04-24T10:14:39.176Z,11.50
2018-04-24T10:17:06.030Z,12.82
2018-04-24T10:19:33.198Z,12.00
2018-04-24T10:22:00.059Z,12.27
2018-04-24T10:24:26.914Z,11.50
2018-04-24T10:26:53.764Z,12.10
2018-04-24T10:29:20.865Z,11.20
2018-04-24T10:31:48.023Z,11.63
2018-04-24T10:34:14.871Z,11.45
2018-04-24T10:36:41.747Z,11.70
2018-04-24T10:39:08.610Z,11.02
2018-04-24T10:41:35.438Z,10.50
2018-04-24T10:44:02.537Z,10.90
2018-04-24T10:46:29.690Z,10.70
2018-04-24T10:48:56.544Z,11.60
2018-04-24T10:51:23.362Z,10.60
2018-04-24T10:53:50.190Z,11.70
2018-04-24T10:56:17.038Z,10.70
2018-04-24T10:58:44.111Z,10.38
2018-04-24T11:01:11.041Z,10.70
2018-04-24T11:03:37.899Z,10.45
2018-04-24T11:06:04.762Z,10.27
2018-04-24T11:08:31.612Z,9.35
2018-04-24T11:10:58.428Z,9.80
2018-04-24T11:13:25.254Z,9.73
2018-04-24T11:15:52.429Z,9.13
2018-04-24T11:18:19.294Z,9.68
2018-04-24T11:20:46.135Z,9.60
2018-04-24T11:23:12.994Z,8.60
2018-04-24T11:25:39.805Z,9.02
2018-04-24T11:28:07.054Z,9.30
2018-04-24T11:30:33.901Z,8.85
2018-04-24T11:33:00.951Z,10.10
2018-04-24T11:35:27.761Z,9.40
2018-04-24T11:37:54.629Z,9.98
2018-04-24T11:40:21.478Z,9.97
2018-04-24T11:42:48.673Z,9.88
2018-04-24T11:45:15.566Z,10.17
2018-04-24T11:47:42.284Z,9.80
2018-04-24T11:50:09.162Z,9.10
2018-04-24T11:52:37.216Z,9.38
2018-04-24T11:55:04.034Z,9.48
2018-04-24T11:57:30.905Z,10.00
2018-04-24T11:59:58.058Z,9.15
2018-04-24T12:02:24.906Z,9.70
2018-04-24T12:04:52.409Z,9.70
2018-04-24T12:07:19.288Z,9.30
2018-04-24T12:09:46.109Z,9.10
2018-04-24T12:12:13.305Z,10.20
2018-04-24T12:14:40.449Z,10.20
2018-04-24T12:17:07.265Z,10.30
2018-04-24T12:19:34.137Z,10.43
2018-04-24T12:22:01.293Z,10.25
2018-04-24T12:24:28.486Z,10.70
2018-04-24T12:26:55.318Z,10.07
2018-04-24T12:29:22.424Z,10.25
2018-04-24T12:31:49.262Z,10.80
2018-04-24T12:34:16.092Z,11.32
2018-04-24T12:36:42.971Z,12.50
2018-04-24T12:39:10.052Z,10.90
2018-04-24T12:41:37.139Z,10.50
2018-04-24T12:44:03.978Z,10.30
2018-04-24T12:46:30.855Z,10.15
2018-04-24T12:48:57.933Z,10.60
2018-04-24T12:51:24.756Z,10.20
2018-04-24T12:53:51.886Z,10.65
2018-04-24T12:56:18.786Z,10.25
2018-04-24T12:58:45.884Z,10.50
2018-04-24T13:01:12.755Z,9.90
2018-04-24T13:03:39.586Z,10.30
2018-04-24T13:06:06.405Z,10.50
2018-04-24T13:08:33.286Z,10.30
2018-04-24T13:11:00.107Z,10.18
2018-04-24T13:13:26.987Z,9.93
2018-04-24T13:15:53.843Z,9.70
2018-04-24T13:18:20.709Z,10.25
2018-04-24T13:20:47.882Z,10.70
2018-04-24T13:23:14.705Z,11.20
2018-04-24T13:25:41.572Z,11.10
2018-04-24T13:28:08.655Z,11.00
2018-04-24T13:30:35.511Z,11.50
2018-04-24T13:33:02.338Z,13.38
2018-04-24T13:35:29.210Z,15.70
2018-04-24T13:37:56.065Z,16.52
2018-04-24T13:40:22.898Z,15.77
2018-04-24T13:42:49.766Z,15.20
2018-04-24T13:45:16.687Z,14.50
2018-04-24T13:47:43.598Z,14.30
2018-04-24T13:50:10.824Z,13.52
2018-04-24T13:52:37.699Z,14.40
2018-04-24T13:55:04.811Z,13.00
2018-04-24T13:57:31.680Z,14.55
2018-04-24T13:59:58.512Z,13.80
2018-04-24T14:02:25.386Z,13.50
2018-04-24T14:04:52.246Z,13.50
2018-04-24T14:07:19.115Z,13.18
2018-04-24T14:09:45.979Z,12.98
2018-04-24T14:12:12.829Z,12.73
2018-04-24T14:14:39.695Z,12.48
2018-04-24T14:17:06.816Z,12.68
2018-04-24T14:19:33.673Z,12.75
2018-04-24T14:22:00.733Z,13.00
2018-04-24T14:24:27.555Z,14.10
2018-04-24T14:26:54.390Z,14.70
2018-04-24T14:29:21.247Z,14.80
2018-04-24T14:31:48.330Z,14.27
2018-04-24T14:34:15.535Z,13.20
2018-04-24T14:36:42.578Z,12.70
2018-04-24T14:39:09.735Z,11.43
2018-04-24T14:41:36.595Z,10.90
2018-04-24T14:44:03.417Z,9.70
2018-04-24T14:46:30.566Z,10.55
2018-04-24T14:48:57.419Z,11.10
2018-04-24T14:51:24.298Z,11.00
2018-04-24T14:53:51.141Z,11.70
2018-04-24T14:56:18.252Z,12.15
2018-04-24T14:58:45.094Z,11.80
2018-04-24T15:01:11.973Z,10.10
2018-04-24T15:03:38.817Z,10.40
2018-04-24T15:06:05.634Z,10.00
2018-04-24T15:08:32.875Z,9.98
2018-04-24T15:11:00.024Z,9.60
2018-04-24T15:13:26.870Z,10.23
2018-04-24T15:15:53.707Z,8.97
2018-04-24T15:18:20.858Z,8.80
2018-04-24T15:20:48.011Z,9.23
2018-04-24T15:23:14.871Z,9.10
2018-04-24T15:25:41.933Z,8.45
2018-04-24T15:28:08.849Z,9.20
2018-04-24T15:30:35.670Z,10.35
2018-04-24T15:33:02.546Z,9.20
2018-04-24T15:35:29.411Z,8.60
2018-04-24T15:37:56.461Z,8.25
2018-04-24T15:40:23.342Z,9.30
2018-04-24T15:42:50.158Z,8.32
2018-04-24T15:45:17.126Z,8.60
2018-04-24T15:47:44.207Z,8.60
2018-04-24T15:50:11.396Z,9.60
2018-04-24T15:52:38.398Z,8.90
2018-04-24T15:55:05.560Z,9.70
2018-04-24T15:57:32.411Z,10.10
2018-04-24T15:59:59.384Z,9.40
2018-04-24T16:02:26.455Z,9.65
2018-04-24T16:04:53.285Z,9.40
2018-04-24T16:07:20.069Z,9.65
2018-04-24T16:09:46.917Z,9.70
2018-04-24T16:12:13.748Z,9.50
2018-04-24T16:14:40.533Z,10.18
2018-04-24T16:17:07.391Z,10.43
2018-04-24T16:19:34.229Z,10.40
2018-04-24T16:22:01.033Z,11.48
2018-04-24T16:24:28.061Z,10.70
2018-04-24T16:26:54.852Z,9.77
2018-04-24T16:29:21.883Z,10.02
2018-04-24T16:31:48.705Z,9.98
2018-04-24T16:34:15.520Z,10.57
2018-04-24T16:36:42.528Z,10.80
2018-04-24T16:39:09.578Z,10.20
2018-04-24T16:41:36.417Z,11.90
2018-04-24T16:44:03.262Z,11.30
2018-04-24T16:46:30.108Z,10.68
2018-04-24T16:48:56.841Z,10.18
2018-04-24T16:51:23.909Z,9.48
2018-04-24T16:53:50.701Z,8.82
2018-04-24T16:56:17.544Z,9.40
2018-04-24T16:58:44.345Z,8.88
2018-04-24T17:01:11.186Z,9.68
2018-04-24T17:03:38.026Z,9.02
2018-04-24T17:06:05.132Z,8.82
2018-04-24T17:08:31.969Z,9.45
2018-04-24T17:10:58.810Z,9.73
2018-04-24T17:13:25.669Z,9.48
2018-04-24T17:15:52.810Z,9.60
2018-04-24T17:18:19.592Z,8.43
2018-04-24T17:20:46.445Z,8.00
2018-04-24T17:23:13.224Z,7.50
2018-04-24T17:25:40.323Z,8.02
2018-04-24T17:28:07.431Z,9.25
2018-04-24T17:30:34.257Z,8.30
2018-04-24T17:33:01.068Z,10.88
2018-04-24T17:35:28.175Z,9.40
2018-04-24T17:37:54.984Z,8.83
2018-04-24T17:40:22.053Z,9.30
2018-04-24T17:42:48.879Z,8.50
2018-04-24T17:45:15.700Z,8.90
2018-04-24T17:49:20.914Z,8.15
2018-04-24T17:51:47.762Z,7.90
2018-04-24T17:54:14.573Z,9.85
2018-04-24T17:56:41.360Z,8.70
2018-04-24T17:59:08.160Z,7.50
2018-04-24T18:01:35.313Z,8.77
2018-04-24T18:04:02.158Z,7.68
2018-04-24T18:06:28.978Z,7.82
2018-04-24T18:08:56.149Z,7.70
2018-04-24T18:11:23.267Z,9.30
2018-04-24T18:13:50.550Z,7.60
2018-04-24T18:16:17.374Z,7.95
2018-04-24T18:18:44.222Z,8.68
2018-04-24T18:21:11.034Z,8.82
2018-04-24T18:23:37.862Z,7.20
2018-04-24T18:26:04.973Z,8.20
2018-04-24T18:28:32.018Z,8.13
2018-04-24T18:30:59.168Z,7.70
2018-04-24T18:33:26.323Z,8.27
2018-04-24T18:35:53.136Z,7.47
2018-04-24T18:38:20.208Z,7.57
2018-04-24T18:40:47.058Z,7.80
2018-04-24T18:43:14.105Z,8.20
2018-04-24T18:45:40.892Z,7.78
2018-04-24T18:48:07.999Z,8.38
2018-04-24T18:50:34.786Z,9.73
2018-04-24T18:53:01.584Z,10.40
2018-04-24T18:55:28.409Z,9.00
2018-04-24T18:57:55.236Z,9.10
2018-04-24T19:00:22.067Z,9.50
2018-04-24T19:02:48.918Z,10.70
2018-04-24T19:05:15.755Z,10.13
2018-04-24T19:07:42.776Z,9.23
2018-04-24T19:10:09.626Z,11.68
2018-04-24T19:12:36.446Z,10.70
2018-04-24T19:15:03.237Z,10.13
2018-04-24T19:17:30.312Z,11.65
2018-04-24T19:19:57.133Z,11.25
2018-04-24T19:22:24.200Z,11.30
2018-04-24T19:24:51.061Z,11.00
2018-04-24T19:27:17.861Z,10.93
2018-04-24T19:29:44.690Z,12.20
2018-04-24T19:32:11.785Z,11.80
2018-04-24T19:34:38.829Z,11.80
2018-04-24T19:37:06.296Z,12.50
2018-04-24T19:39:33.178Z,12.10
2018-04-24T19:42:00.257Z,12.70
2018-04-24T19:44:27.102Z,20.80
2018-04-24T19:46:53.960Z,17.62
2018-04-24T19:49:20.923Z,23.13
2018-04-24T19:51:47.537Z,15.65
2018-04-24T19:54:14.584Z,14.10
2018-04-24T19:56:41.422Z,13.05
2018-04-24T19:59:08.493Z,13.00
2018-04-24T20:01:35.540Z,13.00
2018-04-24T20:04:02.365Z,15.60
2018-04-24T20:06:29.434Z,14.13
2018-04-24T20:08:56.281Z,14.30
2018-04-24T20:11:23.098Z,14.27
2018-04-24T20:13:49.917Z,16.10
2018-04-24T20:16:17.008Z,16.00
2018-04-24T20:18:44.156Z,14.40
2018-04-24T20:21:10.985Z,15.05
2018-04-24T20:23:38.069Z,14.77
2018-04-24T20:26:04.864Z,15.30
2018-04-24T20:28:31.688Z,16.12
2018-04-24T20:30:58.525Z,16.40
2018-04-24T20:33:25.630Z,15.70
2018-04-24T20:35:52.640Z,16.73
2018-04-24T20:38:19.486Z,16.97
2018-04-24T20:40:46.306Z,17.37
2018-04-24T20:43:13.100Z,16.90
2018-04-24T20:45:39.924Z,17.33
2018-04-24T20:48:06.992Z,18.55
2018-04-24T20:50:33.784Z,19.33
2018-04-24T20:53:00.833Z,18.30
2018-04-24T20:55:27.937Z,18.40
2018-04-24T20:57:54.769Z,16.73
2018-04-24T21:00:21.584Z,16.45
2018-04-24T21:02:48.622Z,16.52
2018-04-24T21:05:15.452Z,16.65
2018-04-24T21:07:42.293Z,18.27
2018-04-24T21:10:09.405Z,18.77
2018-04-24T21:12:36.226Z,19.20
2018-04-24T21:15:03.070Z,21.33
2018-04-24T21:17:29.890Z,21.83
2018-04-24T21:19:56.722Z,21.77
2018-04-24T21:22:23.573Z,22.25
2018-04-24T21:24:50.356Z,23.23
2018-04-24T21:27:17.408Z,23.57
2018-04-24T21:29:44.497Z,24.40
2018-04-24T21:32:11.496Z,23.07
2018-04-24T21:34:38.548Z,22.37
2018-04-24T21:37:05.371Z,24.50
2018-04-24T21:39:32.165Z,22.67
2018-04-24T21:41:59.290Z,22.45
2018-04-24T21:44:26.105Z,23.12
2018-04-24T21:46:52.935Z,24.48
2018-04-24T21:49:19.936Z,26.02
2018-04-24T21:51:46.815Z,26.52
2018-04-24T21:54:13.608Z,30.67
2018-04-24T21:56:40.392Z,14.95
2018-04-24T21:59:07.257Z,10.75
2018-04-24T22:01:34.049Z,7.72
2018-04-24T22:04:00.852Z,7.45
2018-04-24T22:06:27.673Z,7.00
2018-04-24T22:08:54.764Z,6.55
2018-04-24T22:11:21.577Z,6.90
2018-04-24T22:13:48.426Z,6.43
2018-04-24T22:16:15.241Z,6.22
2018-04-24T22:18:42.050Z,6.70
2018-04-24T22:21:08.930Z,7.50
2018-04-24T22:23:35.690Z,7.00
2018-04-24T22:26:02.515Z,5.30
2018-04-24T22:28:29.612Z,6.60
2018-04-24T22:30:56.433Z,6.03
2018-04-24T22:33:23.248Z,6.78
2018-04-24T22:35:50.056Z,6.43
2018-04-24T22:38:17.194Z,6.28
2018-04-24T22:40:43.975Z,6.20
2018-04-24T22:43:10.842Z,6.22
2018-04-24T22:45:37.657Z,6.20
2018-04-24T22:48:04.478Z,6.05
2018-04-24T22:50:31.513Z,6.18
2018-04-24T22:52:58.560Z,5.78
2018-04-24T22:55:25.432Z,5.70
2018-04-24T22:57:52.547Z,5.50
2018-04-24T23:00:19.370Z,5.53
2018-04-24T23:02:46.206Z,5.65
2018-04-24T23:05:13.039Z,6.30
2018-04-24T23:07:40.128Z,6.72
2018-04-24T23:10:06.690Z,6.40
2018-04-24T23:12:39.133Z,6.57
2018-04-24T23:15:18.291Z,6.15
2018-04-24T23:17:57.157Z,6.10
2018-04-24T23:20:29.949Z,5.10
2018-04-24T23:22:56.545Z,4.90
2018-04-24T23:25:23.670Z,4.70
2018-04-24T23:27:50.481Z,5.20
2018-04-24T23:30:17.358Z,4.93
2018-04-24T23:32:44.405Z,5.10
2018-04-24T23:35:11.225Z,4.90
2018-04-24T23:37:38.066Z,5.60
2018-04-24T23:40:04.894Z,5.05
2018-04-24T23:42:31.725Z,4.80
2018-04-24T23:44:58.853Z,5.50
2018-04-24T23:47:25.672Z,5.20
2018-04-24T23:49:52.480Z,4.82
2018-04-24T23:52:19.294Z,4.67
2018-04-24T23:54:46.415Z,5.00
2018-04-24T23:57:13.184Z,5.47
2018-04-24T23:59:40.030Z,4.87
